sensor_id;sensor_type;location;lat;lon;timestamp;pressure;altitude;pressure_sealevel;temperature;humidity
57094;BME280;42970;50.996;3.706;2023-06-19T00:00:06;47173.91;;;-146.65;79.86
57094;BME280;42970;50.996;3.706;2023-06-19T00:02:40;47177.91;;;-146.65;80.20
57094;BME280;42970;50.996;3.706;2023-06-19T00:05:06;47177.91;;;-146.65;80.20
57094;BME280;42970;50.996;3.706;2023-06-19T00:07:36;47179.91;;;-146.65;80.52
57094;BME280;42970;50.996;3.706;2023-06-19T00:10:04;47181.91;;;-146.65;79.07
57094;BME280;42970;50.996;3.706;2023-06-19T00:12:29;47179.91;;;-146.65;78.99
57094;BME280;42970;50.996;3.706;2023-06-19T00:14:55;47179.91;;;-146.65;79.01
57094;BME280;42970;50.996;3.706;2023-06-19T00:17:20;47175.91;;;-146.65;78.82
57094;BME280;42970;50.996;3.706;2023-06-19T00:19:45;47175.91;;;-146.65;79.25
57094;BME280;42970;50.996;3.706;2023-06-19T00:22:12;47181.91;;;-146.65;79.39
57094;BME280;42970;50.996;3.706;2023-06-19T00:24:37;47177.91;;;-146.65;79.15
57094;BME280;42970;50.996;3.706;2023-06-19T00:27:02;47179.91;;;-146.65;78.98
57094;BME280;42970;50.996;3.706;2023-06-19T00:29:29;47179.91;;;-146.65;80.44
57094;BME280;42970;50.996;3.706;2023-06-19T00:31:54;47177.91;;;-146.65;79.42
57094;BME280;42970;50.996;3.706;2023-06-19T00:34:20;47175.91;;;-146.65;79.99
57094;BME280;42970;50.996;3.706;2023-06-19T00:36:45;47181.91;;;-146.65;79.41
57094;BME280;42970;50.996;3.706;2023-06-19T00:39:12;47181.91;;;-146.65;79.22
57094;BME280;42970;50.996;3.706;2023-06-19T00:41:38;47179.91;;;-146.65;79.83
57094;BME280;42970;50.996;3.706;2023-06-19T00:44:04;47177.91;;;-146.65;79.30
57094;BME280;42970;50.996;3.706;2023-06-19T00:46:30;47181.91;;;-146.65;79.88
57094;BME280;42970;50.996;3.706;2023-06-19T00:48:56;47177.91;;;-146.65;79.79
57094;BME280;42970;50.996;3.706;2023-06-19T00:51:22;47177.91;;;-146.65;80.04
57094;BME280;42970;50.996;3.706;2023-06-19T00:53:47;47175.91;;;-146.65;80.38
57094;BME280;42970;50.996;3.706;2023-06-19T00:56:12;47175.91;;;-146.65;80.17
57094;BME280;42970;50.996;3.706;2023-06-19T00:58:39;47181.91;;;-146.65;80.02
57094;BME280;42970;50.996;3.706;2023-06-19T01:01:04;47181.91;;;-146.65;79.43
57094;BME280;42970;50.996;3.706;2023-06-19T01:03:30;47177.91;;;-146.65;79.73
57094;BME280;42970;50.996;3.706;2023-06-19T01:05:56;47177.91;;;-146.65;79.82
57094;BME280;42970;50.996;3.706;2023-06-19T01:08:55;47175.91;;;-146.65;79.48
57094;BME280;42970;50.996;3.706;2023-06-19T01:11:25;47183.91;;;-146.65;79.62
57094;BME280;42970;50.996;3.706;2023-06-19T01:13:55;47179.91;;;-146.65;79.84
57094;BME280;42970;50.996;3.706;2023-06-19T01:16:24;47175.91;;;-146.65;79.48
57094;BME280;42970;50.996;3.706;2023-06-19T01:18:52;47181.91;;;-146.65;78.99
57094;BME280;42970;50.996;3.706;2023-06-19T01:21:26;47183.91;;;-146.65;78.55
57094;BME280;42970;50.996;3.706;2023-06-19T01:23:52;47177.91;;;-146.65;78.79
57094;BME280;42970;50.996;3.706;2023-06-19T01:26:17;47177.91;;;-146.65;78.60
57094;BME280;42970;50.996;3.706;2023-06-19T01:28:46;47177.91;;;-146.65;78.27
57094;BME280;42970;50.996;3.706;2023-06-19T01:31:21;47175.91;;;-146.65;78.31
57094;BME280;42970;50.996;3.706;2023-06-19T01:33:52;47179.91;;;-146.65;78.46
57094;BME280;42970;50.996;3.706;2023-06-19T01:36:20;47179.91;;;-146.65;77.86
57094;BME280;42970;50.996;3.706;2023-06-19T01:38:48;47179.91;;;-146.65;77.33
57094;BME280;42970;50.996;3.706;2023-06-19T01:41:15;47179.91;;;-146.65;76.80
57094;BME280;42970;50.996;3.706;2023-06-19T01:43:41;47177.91;;;-146.65;76.30
57094;BME280;42970;50.996;3.706;2023-06-19T01:46:07;47175.91;;;-146.65;75.83
57094;BME280;42970;50.996;3.706;2023-06-19T01:48:34;47177.91;;;-146.65;75.35
57094;BME280;42970;50.996;3.706;2023-06-19T01:51:00;47173.91;;;-146.65;75.94
57094;BME280;42970;50.996;3.706;2023-06-19T01:53:25;47181.91;;;-146.65;76.12
57094;BME280;42970;50.996;3.706;2023-06-19T01:55:50;47179.91;;;-146.65;76.49
57094;BME280;42970;50.996;3.706;2023-06-19T01:58:16;47177.91;;;-146.65;76.33
57094;BME280;42970;50.996;3.706;2023-06-19T02:00:41;47183.91;;;-146.65;76.29
57094;BME280;42970;50.996;3.706;2023-06-19T02:03:07;47181.91;;;-146.65;76.06
57094;BME280;42970;50.996;3.706;2023-06-19T02:05:32;47175.91;;;-146.65;75.80
57094;BME280;42970;50.996;3.706;2023-06-19T02:07:58;47177.91;;;-146.65;75.32
57094;BME280;42970;50.996;3.706;2023-06-19T02:10:23;47173.91;;;-146.65;75.54
57094;BME280;42970;50.996;3.706;2023-06-19T02:12:49;47183.91;;;-146.65;75.20
57094;BME280;42970;50.996;3.706;2023-06-19T02:15:14;47179.91;;;-146.65;75.30
57094;BME280;42970;50.996;3.706;2023-06-19T02:17:40;47177.91;;;-146.65;75.25
57094;BME280;42970;50.996;3.706;2023-06-19T02:20:08;47175.91;;;-146.65;75.57
57094;BME280;42970;50.996;3.706;2023-06-19T02:22:35;47177.91;;;-146.65;75.96
57094;BME280;42970;50.996;3.706;2023-06-19T02:25:00;47179.91;;;-146.65;75.86
57094;BME280;42970;50.996;3.706;2023-06-19T02:27:25;47181.91;;;-146.65;76.24
57094;BME280;42970;50.996;3.706;2023-06-19T02:29:51;47179.91;;;-146.65;76.11
57094;BME280;42970;50.996;3.706;2023-06-19T02:32:16;47181.91;;;-146.65;76.04
57094;BME280;42970;50.996;3.706;2023-06-19T02:34:42;47177.91;;;-146.65;75.69
57094;BME280;42970;50.996;3.706;2023-06-19T02:37:07;47181.91;;;-146.65;74.82
57094;BME280;42970;50.996;3.706;2023-06-19T02:39:33;47177.91;;;-146.65;74.85
57094;BME280;42970;50.996;3.706;2023-06-19T02:41:58;47177.91;;;-146.65;74.47
57094;BME280;42970;50.996;3.706;2023-06-19T02:44:24;47177.91;;;-146.65;74.26
57094;BME280;42970;50.996;3.706;2023-06-19T02:46:50;47177.91;;;-146.65;74.56
57094;BME280;42970;50.996;3.706;2023-06-19T02:49:15;47177.91;;;-146.65;74.07
57094;BME280;42970;50.996;3.706;2023-06-19T02:51:40;47177.91;;;-146.65;73.97
57094;BME280;42970;50.996;3.706;2023-06-19T02:54:06;47173.91;;;-146.65;73.13
57094;BME280;42970;50.996;3.706;2023-06-19T02:56:31;47175.91;;;-146.65;72.91
57094;BME280;42970;50.996;3.706;2023-06-19T02:58:57;47175.91;;;-146.65;73.17
57094;BME280;42970;50.996;3.706;2023-06-19T03:01:23;47177.91;;;-146.65;73.64
57094;BME280;42970;50.996;3.706;2023-06-19T03:03:49;47177.91;;;-146.65;74.17
57094;BME280;42970;50.996;3.706;2023-06-19T03:06:14;47175.91;;;-146.65;73.72
57094;BME280;42970;50.996;3.706;2023-06-19T03:08:40;47175.91;;;-146.65;73.87
57094;BME280;42970;50.996;3.706;2023-06-19T03:11:05;47175.91;;;-146.65;74.96
57094;BME280;42970;50.996;3.706;2023-06-19T03:16:09;47175.91;;;-146.65;74.86
57094;BME280;42970;50.996;3.706;2023-06-19T03:18:34;47175.91;;;-146.65;74.47
57094;BME280;42970;50.996;3.706;2023-06-19T03:20:59;47185.91;;;-146.65;75.04
57094;BME280;42970;50.996;3.706;2023-06-19T03:23:25;47173.91;;;-146.65;75.17
57094;BME280;42970;50.996;3.706;2023-06-19T03:25:50;47173.91;;;-146.65;74.93
57094;BME280;42970;50.996;3.706;2023-06-19T03:28:16;47181.91;;;-146.65;74.18
57094;BME280;42970;50.996;3.706;2023-06-19T03:30:41;47179.91;;;-146.65;74.97
57094;BME280;42970;50.996;3.706;2023-06-19T03:33:07;47177.91;;;-146.65;74.63
57094;BME280;42970;50.996;3.706;2023-06-19T03:35:32;47175.91;;;-146.65;75.63
57094;BME280;42970;50.996;3.706;2023-06-19T03:37:57;47179.91;;;-146.65;75.80
57094;BME280;42970;50.996;3.706;2023-06-19T03:40:23;47173.91;;;-146.65;75.30
57094;BME280;42970;50.996;3.706;2023-06-19T03:42:48;47175.91;;;-146.65;75.38
57094;BME280;42970;50.996;3.706;2023-06-19T03:45:13;47177.91;;;-146.65;75.63
57094;BME280;42970;50.996;3.706;2023-06-19T03:47:39;47177.91;;;-146.65;76.01
57094;BME280;42970;50.996;3.706;2023-06-19T03:50:05;47175.91;;;-146.65;75.98
57094;BME280;42970;50.996;3.706;2023-06-19T03:52:35;47179.91;;;-146.65;76.19
57094;BME280;42970;50.996;3.706;2023-06-19T03:55:01;47181.91;;;-146.65;76.12
57094;BME280;42970;50.996;3.706;2023-06-19T03:57:26;47175.91;;;-146.65;76.30
57094;BME280;42970;50.996;3.706;2023-06-19T03:59:52;47181.91;;;-146.65;77.34
57094;BME280;42970;50.996;3.706;2023-06-19T04:02:19;47181.91;;;-146.65;76.87
57094;BME280;42970;50.996;3.706;2023-06-19T04:04:44;47179.91;;;-146.65;76.86
57094;BME280;42970;50.996;3.706;2023-06-19T04:07:10;47171.91;;;-146.65;76.90
57094;BME280;42970;50.996;3.706;2023-06-19T04:09:35;47175.91;;;-146.65;76.54
57094;BME280;42970;50.996;3.706;2023-06-19T04:12:01;47177.91;;;-146.65;75.83
57094;BME280;42970;50.996;3.706;2023-06-19T04:14:26;47177.91;;;-146.65;75.25
57094;BME280;42970;50.996;3.706;2023-06-19T04:16:51;47177.91;;;-146.65;75.30
57094;BME280;42970;50.996;3.706;2023-06-19T04:19:17;47177.91;;;-146.65;75.54
57094;BME280;42970;50.996;3.706;2023-06-19T04:21:42;47183.91;;;-146.65;74.35
57094;BME280;42970;50.996;3.706;2023-06-19T04:24:07;47183.91;;;-146.65;73.79
57094;BME280;42970;50.996;3.706;2023-06-19T04:26:34;47177.91;;;-146.65;74.17
57094;BME280;42970;50.996;3.706;2023-06-19T04:29:01;47179.91;;;-146.65;73.31
57094;BME280;42970;50.996;3.706;2023-06-19T04:31:26;47175.91;;;-146.65;73.13
57094;BME280;42970;50.996;3.706;2023-06-19T04:33:53;47175.91;;;-146.65;72.89
57094;BME280;42970;50.996;3.706;2023-06-19T04:36:22;47173.91;;;-146.65;73.13
57094;BME280;42970;50.996;3.706;2023-06-19T04:38:48;47171.91;;;-146.65;73.31
57094;BME280;42970;50.996;3.706;2023-06-19T04:41:13;47173.91;;;-146.65;73.39
57094;BME280;42970;50.996;3.706;2023-06-19T04:43:39;47175.91;;;-146.65;73.36
57094;BME280;42970;50.996;3.706;2023-06-19T04:46:07;47179.91;;;-146.65;73.15
57094;BME280;42970;50.996;3.706;2023-06-19T04:48:32;47179.91;;;-146.65;72.98
57094;BME280;42970;50.996;3.706;2023-06-19T04:50:57;47173.91;;;-146.65;72.90
57094;BME280;42970;50.996;3.706;2023-06-19T04:53:26;47177.91;;;-146.65;73.15
57094;BME280;42970;50.996;3.706;2023-06-19T04:55:52;47177.91;;;-146.65;72.60
57094;BME280;42970;50.996;3.706;2023-06-19T04:58:19;47177.91;;;-146.65;72.60
57094;BME280;42970;50.996;3.706;2023-06-19T05:00:46;47181.91;;;-146.65;72.32
57094;BME280;42970;50.996;3.706;2023-06-19T05:03:19;47173.91;;;-146.65;72.54
57094;BME280;42970;50.996;3.706;2023-06-19T05:05:45;47175.91;;;-146.65;71.62
57094;BME280;42970;50.996;3.706;2023-06-19T05:08:10;47175.91;;;-146.65;71.85
57094;BME280;42970;50.996;3.706;2023-06-19T05:10:36;47181.91;;;-146.65;71.38
57094;BME280;42970;50.996;3.706;2023-06-19T05:13:01;47173.91;;;-146.65;71.75
57094;BME280;42970;50.996;3.706;2023-06-19T05:15:27;47177.91;;;-146.65;71.62
57094;BME280;42970;50.996;3.706;2023-06-19T05:17:53;47175.91;;;-146.65;71.70
57094;BME280;42970;50.996;3.706;2023-06-19T05:20:19;47175.91;;;-146.65;72.03
57094;BME280;42970;50.996;3.706;2023-06-19T05:22:44;47177.91;;;-146.65;72.03
57094;BME280;42970;50.996;3.706;2023-06-19T05:25:10;47177.91;;;-146.65;71.49
57094;BME280;42970;50.996;3.706;2023-06-19T05:27:35;47175.91;;;-146.65;71.64
57094;BME280;42970;50.996;3.706;2023-06-19T05:30:01;47177.91;;;-146.65;71.80
57094;BME280;42970;50.996;3.706;2023-06-19T05:32:26;47179.91;;;-146.65;71.18
57094;BME280;42970;50.996;3.706;2023-06-19T05:34:52;47179.91;;;-146.65;71.69
57094;BME280;42970;50.996;3.706;2023-06-19T05:37:18;47179.91;;;-146.65;71.45
57094;BME280;42970;50.996;3.706;2023-06-19T05:39:43;47179.91;;;-146.65;71.90
57094;BME280;42970;50.996;3.706;2023-06-19T05:42:09;47179.91;;;-146.65;71.44
57094;BME280;42970;50.996;3.706;2023-06-19T05:44:34;47179.91;;;-146.65;71.22
57094;BME280;42970;50.996;3.706;2023-06-19T05:47:00;47177.91;;;-146.65;71.46
57094;BME280;42970;50.996;3.706;2023-06-19T05:49:26;47175.91;;;-146.65;70.95
57094;BME280;42970;50.996;3.706;2023-06-19T05:51:51;47177.91;;;-146.65;70.44
57094;BME280;42970;50.996;3.706;2023-06-19T05:54:17;47175.91;;;-146.65;70.13
57094;BME280;42970;50.996;3.706;2023-06-19T05:56:43;47179.91;;;-146.65;69.93
57094;BME280;42970;50.996;3.706;2023-06-19T05:59:08;47175.91;;;-146.65;69.10
57094;BME280;42970;50.996;3.706;2023-06-19T06:01:34;47183.91;;;-146.65;69.22
57094;BME280;42970;50.996;3.706;2023-06-19T06:03:59;47175.91;;;-146.65;69.15
57094;BME280;42970;50.996;3.706;2023-06-19T06:06:26;47181.91;;;-146.65;68.75
57094;BME280;42970;50.996;3.706;2023-06-19T06:08:53;47175.91;;;-146.65;67.54
57094;BME280;42970;50.996;3.706;2023-06-19T06:11:20;47177.91;;;-146.65;68.55
57094;BME280;42970;50.996;3.706;2023-06-19T06:13:45;47175.91;;;-146.65;69.12
57094;BME280;42970;50.996;3.706;2023-06-19T06:16:10;47175.91;;;-146.65;68.64
57094;BME280;42970;50.996;3.706;2023-06-19T06:18:36;47175.91;;;-146.65;68.64
57094;BME280;42970;50.996;3.706;2023-06-19T06:21:01;47177.91;;;-146.65;68.85
57094;BME280;42970;50.996;3.706;2023-06-19T06:23:27;47179.91;;;-146.65;69.00
57094;BME280;42970;50.996;3.706;2023-06-19T06:25:52;47179.91;;;-146.65;68.67
57094;BME280;42970;50.996;3.706;2023-06-19T06:28:18;47181.91;;;-146.65;67.83
57094;BME280;42970;50.996;3.706;2023-06-19T06:30:43;47173.91;;;-146.65;67.39
57094;BME280;42970;50.996;3.706;2023-06-19T06:33:09;47175.91;;;-146.65;67.38
57094;BME280;42970;50.996;3.706;2023-06-19T06:35:34;47177.91;;;-146.65;67.63
57094;BME280;42970;50.996;3.706;2023-06-19T06:38:01;47173.91;;;-146.65;68.74
57094;BME280;42970;50.996;3.706;2023-06-19T06:40:27;47175.91;;;-146.65;68.79
57094;BME280;42970;50.996;3.706;2023-06-19T06:42:52;47175.91;;;-146.65;68.55
57094;BME280;42970;50.996;3.706;2023-06-19T06:45:18;47181.91;;;-146.65;68.23
57094;BME280;42970;50.996;3.706;2023-06-19T06:47:44;47179.91;;;-146.65;67.76
57094;BME280;42970;50.996;3.706;2023-06-19T06:50:09;47175.91;;;-146.65;66.29
57094;BME280;42970;50.996;3.706;2023-06-19T06:52:35;47177.91;;;-146.65;65.34
57094;BME280;42970;50.996;3.706;2023-06-19T06:55:00;47177.91;;;-146.65;64.71
57094;BME280;42970;50.996;3.706;2023-06-19T06:57:25;47177.91;;;-146.65;64.86
57094;BME280;42970;50.996;3.706;2023-06-19T06:59:51;47175.91;;;-146.65;63.51
57094;BME280;42970;50.996;3.706;2023-06-19T07:02:16;47175.91;;;-146.65;64.77
57094;BME280;42970;50.996;3.706;2023-06-19T07:04:42;47173.91;;;-146.65;64.48
57094;BME280;42970;50.996;3.706;2023-06-19T07:07:07;47181.91;;;-146.65;64.52
57094;BME280;42970;50.996;3.706;2023-06-19T07:09:34;47181.91;;;-146.65;63.51
57094;BME280;42970;50.996;3.706;2023-06-19T07:11:59;47177.91;;;-146.65;62.38
57094;BME280;42970;50.996;3.706;2023-06-19T07:14:25;47175.91;;;-146.65;61.26
57094;BME280;42970;50.996;3.706;2023-06-19T07:16:50;47177.91;;;-146.65;61.94
57094;BME280;42970;50.996;3.706;2023-06-19T07:19:15;47175.91;;;-146.65;61.73
57094;BME280;42970;50.996;3.706;2023-06-19T07:21:41;47181.91;;;-146.65;62.12
57094;BME280;42970;50.996;3.706;2023-06-19T07:24:07;47171.91;;;-146.65;61.46
57094;BME280;42970;50.996;3.706;2023-06-19T07:26:33;47173.91;;;-146.65;61.90
57094;BME280;42970;50.996;3.706;2023-06-19T07:28:58;47179.91;;;-146.65;60.72
57094;BME280;42970;50.996;3.706;2023-06-19T07:31:24;47175.91;;;-146.65;60.64
57094;BME280;42970;50.996;3.706;2023-06-19T07:33:49;47177.91;;;-146.65;60.54
57094;BME280;42970;50.996;3.706;2023-06-19T07:36:15;47177.91;;;-146.65;60.56
57094;BME280;42970;50.996;3.706;2023-06-19T07:38:42;47175.91;;;-146.65;61.18
57094;BME280;42970;50.996;3.706;2023-06-19T07:41:08;47175.91;;;-146.65;60.70
57094;BME280;42970;50.996;3.706;2023-06-19T07:43:35;47179.91;;;-146.65;60.83
57094;BME280;42970;50.996;3.706;2023-06-19T07:46:01;47175.91;;;-146.65;59.44
57094;BME280;42970;50.996;3.706;2023-06-19T07:48:26;47177.91;;;-146.65;59.95
57094;BME280;42970;50.996;3.706;2023-06-19T07:50:53;47173.91;;;-146.65;59.66
57094;BME280;42970;50.996;3.706;2023-06-19T07:53:19;47175.91;;;-146.65;58.60
57094;BME280;42970;50.996;3.706;2023-06-19T07:55:44;47181.91;;;-146.65;59.22
57094;BME280;42970;50.996;3.706;2023-06-19T07:58:10;47179.91;;;-146.65;58.20
57094;BME280;42970;50.996;3.706;2023-06-19T08:00:35;47179.91;;;-146.65;59.30
57094;BME280;42970;50.996;3.706;2023-06-19T08:03:01;47177.91;;;-146.65;58.53
57094;BME280;42970;50.996;3.706;2023-06-19T08:05:26;47179.91;;;-146.65;58.61
57094;BME280;42970;50.996;3.706;2023-06-19T08:07:52;47177.91;;;-146.65;59.16
57094;BME280;42970;50.996;3.706;2023-06-19T08:10:17;47179.91;;;-146.65;60.51
57094;BME280;42970;50.996;3.706;2023-06-19T08:12:43;47181.91;;;-146.65;59.42
57094;BME280;42970;50.996;3.706;2023-06-19T08:15:10;47181.91;;;-146.65;59.06
57094;BME280;42970;50.996;3.706;2023-06-19T08:17:35;47177.91;;;-146.65;59.08
57094;BME280;42970;50.996;3.706;2023-06-19T08:20:01;47179.91;;;-146.65;59.59
57094;BME280;42970;50.996;3.706;2023-06-19T08:22:28;47175.91;;;-146.65;59.13
57094;BME280;42970;50.996;3.706;2023-06-19T08:24:53;47183.91;;;-146.65;58.59
57094;BME280;42970;50.996;3.706;2023-06-19T08:27:19;47181.91;;;-146.65;57.79
57094;BME280;42970;50.996;3.706;2023-06-19T08:29:44;47179.91;;;-146.65;56.98
57094;BME280;42970;50.996;3.706;2023-06-19T08:32:09;47177.91;;;-146.65;56.38
57094;BME280;42970;50.996;3.706;2023-06-19T08:34:35;47177.91;;;-146.65;56.24
57094;BME280;42970;50.996;3.706;2023-06-19T08:37:00;47181.91;;;-146.65;55.61
57094;BME280;42970;50.996;3.706;2023-06-19T08:39:25;47177.91;;;-146.65;55.85
57094;BME280;42970;50.996;3.706;2023-06-19T08:41:51;47179.91;;;-146.65;55.53
57094;BME280;42970;50.996;3.706;2023-06-19T08:44:18;47181.91;;;-146.65;54.10
57094;BME280;42970;50.996;3.706;2023-06-19T08:46:43;47177.91;;;-146.65;53.36
57094;BME280;42970;50.996;3.706;2023-06-19T08:49:09;47181.91;;;-146.65;53.14
57094;BME280;42970;50.996;3.706;2023-06-19T08:51:37;47181.91;;;-146.65;53.04
57094;BME280;42970;50.996;3.706;2023-06-19T08:54:04;47179.91;;;-146.65;55.51
57094;BME280;42970;50.996;3.706;2023-06-19T08:56:34;47173.91;;;-146.65;53.37
57094;BME280;42970;50.996;3.706;2023-06-19T08:59:13;47177.91;;;-146.65;53.58
57094;BME280;42970;50.996;3.706;2023-06-19T09:01:38;47179.91;;;-146.65;51.90
57094;BME280;42970;50.996;3.706;2023-06-19T09:04:14;47181.91;;;-146.65;53.41
57094;BME280;42970;50.996;3.706;2023-06-19T09:06:52;47179.91;;;-146.65;52.74
57094;BME280;42970;50.996;3.706;2023-06-19T09:09:19;47177.91;;;-146.65;52.65
57094;BME280;42970;50.996;3.706;2023-06-19T09:12:15;47179.91;;;-146.65;52.33
57094;BME280;42970;50.996;3.706;2023-06-19T09:14:45;47177.91;;;-146.65;52.50
57094;BME280;42970;50.996;3.706;2023-06-19T09:17:20;47179.91;;;-146.65;52.48
57094;BME280;42970;50.996;3.706;2023-06-19T09:19:51;47177.91;;;-146.65;52.07
57094;BME280;42970;50.996;3.706;2023-06-19T09:22:18;47181.91;;;-146.65;49.98
57094;BME280;42970;50.996;3.706;2023-06-19T09:24:46;47181.91;;;-146.65;49.93
57094;BME280;42970;50.996;3.706;2023-06-19T09:27:14;47181.91;;;-146.65;49.82
57094;BME280;42970;50.996;3.706;2023-06-19T09:29:46;47181.91;;;-146.65;48.57
57094;BME280;42970;50.996;3.706;2023-06-19T09:32:19;47179.91;;;-146.65;46.39
57094;BME280;42970;50.996;3.706;2023-06-19T09:34:46;47175.91;;;-146.65;47.46
57094;BME280;42970;50.996;3.706;2023-06-19T09:37:11;47175.91;;;-146.65;47.01
57094;BME280;42970;50.996;3.706;2023-06-19T09:39:37;47185.91;;;-146.65;47.29
57094;BME280;42970;50.996;3.706;2023-06-19T09:42:08;47181.91;;;-146.65;47.97
57094;BME280;42970;50.996;3.706;2023-06-19T09:44:42;47183.91;;;-146.65;49.54
57094;BME280;42970;50.996;3.706;2023-06-19T09:47:44;47177.91;;;-146.65;49.58
57094;BME280;42970;50.996;3.706;2023-06-19T09:50:15;47179.91;;;-146.65;49.76
57094;BME280;42970;50.996;3.706;2023-06-19T09:52:42;47181.91;;;-146.65;46.62
57094;BME280;42970;50.996;3.706;2023-06-19T09:55:08;47179.91;;;-146.65;47.64
57094;BME280;42970;50.996;3.706;2023-06-19T09:57:36;47179.91;;;-146.65;47.92
57094;BME280;42970;50.996;3.706;2023-06-19T10:00:05;47177.91;;;-146.65;47.28
57094;BME280;42970;50.996;3.706;2023-06-19T10:02:42;47181.91;;;-146.65;46.36
57094;BME280;42970;50.996;3.706;2023-06-19T10:05:08;47179.91;;;-146.65;45.30
57094;BME280;42970;50.996;3.706;2023-06-19T10:07:37;47179.91;;;-146.65;45.95
57094;BME280;42970;50.996;3.706;2023-06-19T10:10:04;47181.91;;;-146.65;45.28
57094;BME280;42970;50.996;3.706;2023-06-19T10:12:40;47181.91;;;-146.65;44.60
57094;BME280;42970;50.996;3.706;2023-06-19T10:15:18;47181.91;;;-146.65;43.51
57094;BME280;42970;50.996;3.706;2023-06-19T10:17:47;47179.91;;;-146.65;44.20
57094;BME280;42970;50.996;3.706;2023-06-19T10:23:12;47183.91;;;-146.65;45.42
57094;BME280;42970;50.996;3.706;2023-06-19T10:25:40;47179.91;;;-146.65;43.03
57094;BME280;42970;50.996;3.706;2023-06-19T10:28:30;47181.91;;;-146.65;42.46
57094;BME280;42970;50.996;3.706;2023-06-19T10:33:27;47183.91;;;-146.65;43.36
57094;BME280;42970;50.996;3.706;2023-06-19T10:35:53;47177.91;;;-146.65;43.17
57094;BME280;42970;50.996;3.706;2023-06-19T10:38:19;47181.91;;;-146.65;42.43
57094;BME280;42970;50.996;3.706;2023-06-19T10:40:45;47181.91;;;-146.65;41.96
57094;BME280;42970;50.996;3.706;2023-06-19T10:43:25;47179.91;;;-146.65;40.97
57094;BME280;42970;50.996;3.706;2023-06-19T10:45:55;47181.91;;;-146.65;38.91
57094;BME280;42970;50.996;3.706;2023-06-19T10:48:26;47179.91;;;-146.65;39.86
57094;BME280;42970;50.996;3.706;2023-06-19T10:50:56;47181.91;;;-146.65;38.91
57094;BME280;42970;50.996;3.706;2023-06-19T10:53:30;47179.91;;;-146.65;38.76
57094;BME280;42970;50.996;3.706;2023-06-19T10:56:01;47177.91;;;-146.65;39.07
57094;BME280;42970;50.996;3.706;2023-06-19T10:58:27;47181.91;;;-146.65;38.45
57094;BME280;42970;50.996;3.706;2023-06-19T11:00:54;47181.91;;;-146.65;38.02
57094;BME280;42970;50.996;3.706;2023-06-19T11:03:20;47181.91;;;-146.65;37.87
57094;BME280;42970;50.996;3.706;2023-06-19T11:05:46;47181.91;;;-146.65;37.26
57094;BME280;42970;50.996;3.706;2023-06-19T11:08:18;47177.91;;;-146.65;37.26
57094;BME280;42970;50.996;3.706;2023-06-19T11:10:44;47179.91;;;-146.65;38.01
57094;BME280;42970;50.996;3.706;2023-06-19T11:13:19;47181.91;;;-146.65;36.45
57094;BME280;42970;50.996;3.706;2023-06-19T11:15:45;47181.91;;;-146.65;36.83
57094;BME280;42970;50.996;3.706;2023-06-19T11:18:11;47181.91;;;-146.65;36.16
57094;BME280;42970;50.996;3.706;2023-06-19T11:20:48;47177.91;;;-146.65;34.92
57094;BME280;42970;50.996;3.706;2023-06-19T11:23:17;47181.91;;;-146.65;34.73
57094;BME280;42970;50.996;3.706;2023-06-19T11:25:43;47181.91;;;-146.65;36.08
57094;BME280;42970;50.996;3.706;2023-06-19T11:30:39;47179.91;;;-146.65;33.76
57094;BME280;42970;50.996;3.706;2023-06-19T11:33:20;47179.91;;;-146.65;34.54
57094;BME280;42970;50.996;3.706;2023-06-19T11:35:52;47179.91;;;-146.65;37.04
57094;BME280;42970;50.996;3.706;2023-06-19T11:40:43;47181.91;;;-146.65;35.06
57094;BME280;42970;50.996;3.706;2023-06-19T11:43:11;47179.91;;;-146.65;32.86
57094;BME280;42970;50.996;3.706;2023-06-19T11:45:47;47181.91;;;-146.65;32.17
57094;BME280;42970;50.996;3.706;2023-06-19T11:48:13;47179.91;;;-146.65;34.60
57094;BME280;42970;50.996;3.706;2023-06-19T11:50:39;47183.91;;;-146.65;33.21
57094;BME280;42970;50.996;3.706;2023-06-19T11:53:04;47177.91;;;-146.65;34.98
57094;BME280;42970;50.996;3.706;2023-06-19T11:55:29;47183.91;;;-146.65;33.50
57094;BME280;42970;50.996;3.706;2023-06-19T11:57:55;47181.91;;;-146.65;32.59
57094;BME280;42970;50.996;3.706;2023-06-19T12:00:20;47179.91;;;-146.65;34.34
57094;BME280;42970;50.996;3.706;2023-06-19T12:02:46;47183.91;;;-146.65;34.45
57094;BME280;42970;50.996;3.706;2023-06-19T12:05:12;47181.91;;;-146.65;33.92
57094;BME280;42970;50.996;3.706;2023-06-19T12:07:39;47183.91;;;-146.65;34.04
57094;BME280;42970;50.996;3.706;2023-06-19T12:10:05;47181.91;;;-146.65;35.37
57094;BME280;42970;50.996;3.706;2023-06-19T12:12:35;47177.91;;;-146.65;34.52
57094;BME280;42970;50.996;3.706;2023-06-19T12:15:01;47185.91;;;-146.65;32.32
57094;BME280;42970;50.996;3.706;2023-06-19T12:17:27;47181.91;;;-146.65;31.15
57094;BME280;42970;50.996;3.706;2023-06-19T12:19:52;47181.91;;;-146.65;31.86
57094;BME280;42970;50.996;3.706;2023-06-19T12:22:18;47179.91;;;-146.65;31.06
57094;BME280;42970;50.996;3.706;2023-06-19T12:24:43;47181.91;;;-146.65;31.71
57094;BME280;42970;50.996;3.706;2023-06-19T12:27:09;47183.91;;;-146.65;30.31
57094;BME280;42970;50.996;3.706;2023-06-19T12:29:34;47183.91;;;-146.65;30.91
57094;BME280;42970;50.996;3.706;2023-06-19T12:32:01;47177.91;;;-146.65;31.21
57094;BME280;42970;50.996;3.706;2023-06-19T12:34:28;47181.91;;;-146.65;29.65
57094;BME280;42970;50.996;3.706;2023-06-19T12:36:53;47181.91;;;-146.65;30.02
57094;BME280;42970;50.996;3.706;2023-06-19T12:39:20;47181.91;;;-146.65;30.61
57094;BME280;42970;50.996;3.706;2023-06-19T12:41:45;47181.91;;;-146.65;29.20
57094;BME280;42970;50.996;3.706;2023-06-19T12:44:10;47179.91;;;-146.65;29.36
57094;BME280;42970;50.996;3.706;2023-06-19T12:46:36;47179.91;;;-146.65;28.54
57094;BME280;42970;50.996;3.706;2023-06-19T12:49:01;47177.91;;;-146.65;30.21
57094;BME280;42970;50.996;3.706;2023-06-19T12:51:27;47179.91;;;-146.65;30.27